createdAt,value
2022-11-02T00:01:55.460Z,100212.28
2022-11-02T00:03:59.550Z,100219.38
2022-11-02T00:06:04.852Z,100220.22
2022-11-02T00:08:08.389Z,100220.31
2022-11-02T00:10:12.689Z,100212.41
2022-11-02T00:12:16.500Z,100226.41
2022-11-02T00:14:20.294Z,100221.13
2022-11-02T00:16:25.607Z,100223.78
2022-11-02T00:18:29.665Z,100230.06
2022-11-02T00:20:34.032Z,100241.50
2022-11-02T00:22:40.992Z,100225.66
2022-11-02T00:24:44.975Z,100235.34
2022-11-02T00:26:48.587Z,100234.50
2022-11-02T00:28:52.446Z,100239.78
2022-11-02T00:30:56.335Z,100241.50
2022-11-02T00:32:59.873Z,100238.84
2022-11-02T00:35:03.642Z,100248.47
2022-11-02T00:37:07.808Z,100244.88
2022-11-02T00:39:12.894Z,100237.91
2022-11-02T00:41:17.183Z,100255.41
2022-11-02T00:43:20.955Z,100251.09
2022-11-02T00:45:25.386Z,100251.00
2022-11-02T00:47:29.714Z,100254.47
2022-11-02T00:49:33.660Z,100246.56
2022-11-02T00:51:38.016Z,100246.56
2022-11-02T00:53:42.134Z,100249.09
2022-11-02T00:55:47.811Z,100235.00
2022-11-02T00:57:52.122Z,100235.81
2022-11-02T00:59:55.874Z,100236.69
2022-11-02T01:01:59.657Z,100243.72
2022-11-02T01:04:04.508Z,100245.53
2022-11-02T01:06:13.994Z,100250.72
2022-11-02T01:08:17.717Z,100256.81
2022-11-02T01:10:21.830Z,100255.97
2022-11-02T01:12:27.202Z,100263.91
2022-11-02T01:14:31.066Z,100256.91
2022-11-02T01:16:35.088Z,100253.44
2022-11-02T01:18:39.754Z,100255.31
2022-11-02T01:20:43.428Z,100258.81
2022-11-02T01:22:48.218Z,100243.94
2022-11-02T01:24:52.117Z,100250.13
2022-11-02T01:26:56.386Z,100255.41
2022-11-02T01:29:01.934Z,100230.84
2022-11-02T01:31:08.786Z,100225.66
2022-11-02T01:33:13.635Z,100226.59
2022-11-02T01:35:17.648Z,100222.16
2022-11-02T01:37:21.391Z,100221.44
2022-11-02T01:39:24.776Z,100226.69
2022-11-02T01:41:28.088Z,100214.47
2022-11-02T01:43:34.350Z,100222.25
2022-11-02T01:45:39.091Z,100223.13
2022-11-02T01:47:45.599Z,100220.41
2022-11-02T01:49:52.312Z,100216.06
2022-11-02T01:52:01.178Z,100210.78
2022-11-02T01:54:08.827Z,100216.16
2022-11-02T01:56:16.244Z,100218.69
2022-11-02T01:58:19.607Z,100214.34
2022-11-02T02:00:23.344Z,100212.69
2022-11-02T02:02:29.408Z,100211.72
2022-11-02T02:04:34.517Z,100210.06
2022-11-02T02:06:39.135Z,100204.78
2022-11-02T02:08:46.472Z,100192.53
2022-11-02T02:10:50.937Z,100183.69
2022-11-02T02:12:54.595Z,100192.44
2022-11-02T02:14:58.015Z,100197.81
2022-11-02T02:17:15.838Z,100210.06
2022-11-02T02:19:34.011Z,100201.19
2022-11-02T02:21:48.844Z,100195.91
2022-11-02T02:24:26.737Z,100194.25
2022-11-02T02:26:51.905Z,100181.78
2022-11-02T02:29:01.153Z,100194.03
2022-11-02T02:31:15.499Z,100192.16
2022-11-02T02:33:27.704Z,100190.28
2022-11-02T02:35:36.871Z,100186.72
2022-11-02T02:37:47.182Z,100189.25
2022-11-02T02:39:55.519Z,100179.53
2022-11-02T02:42:07.411Z,100175.75
2022-11-02T02:44:17.534Z,100185.38
2022-11-02T02:46:24.575Z,100179.16
2022-11-02T02:48:28.885Z,100169.56
2022-11-02T02:50:40.589Z,100175.66
2022-11-02T02:52:48.313Z,100176.53
2022-11-02T02:54:54.120Z,100168.53
2022-11-02T02:57:03.487Z,100177.28
2022-11-02T02:59:09.544Z,100175.50
2022-11-02T03:01:16.356Z,100168.44
2022-11-02T03:03:23.403Z,100184.03
2022-11-02T03:05:28.256Z,100169.00
2022-11-02T03:07:35.047Z,100175.00
2022-11-02T03:09:48.778Z,100171.44
2022-11-02T03:12:01.910Z,100180.06
2022-11-02T03:14:23.264Z,100186.22
2022-11-02T03:16:41.769Z,100194.03
2022-11-02T03:18:52.812Z,100192.31
2022-11-02T03:21:06.437Z,100189.69
2022-11-02T03:23:14.019Z,100202.03
2022-11-02T03:25:22.266Z,100212.59
2022-11-02T03:27:36.376Z,100212.59
2022-11-02T03:29:47.755Z,100213.41
2022-11-02T03:31:59.647Z,100197.41
2022-11-02T03:34:13.728Z,100206.06
2022-11-02T03:36:21.943Z,100206.81
2022-11-02T03:38:32.840Z,100201.38
2022-11-02T03:40:42.286Z,100197.69
2022-11-02T03:42:47.887Z,100194.00
2022-11-02T03:44:58.118Z,100199.19
2022-11-02T03:47:05.390Z,100191.09
2022-11-02T03:49:13.890Z,100187.31
2022-11-02T03:51:20.500Z,100195.22
2022-11-02T03:53:46.124Z,100183.28
2022-11-02T03:55:53.180Z,100181.88
2022-11-02T03:57:56.598Z,100190.06
2022-11-02T04:00:12.246Z,100194.84
2022-11-02T04:02:22.378Z,100189.41
2022-11-02T04:04:26.389Z,100177.06
2022-11-02T04:06:29.907Z,100191.97
2022-11-02T04:08:36.425Z,100175.16
2022-11-02T04:10:57.144Z,100180.53
2022-11-02T04:13:18.023Z,100172.09
2022-11-02T04:15:21.515Z,100176.81
2022-11-02T04:17:44.149Z,100169.81
2022-11-02T04:19:51.139Z,100179.72
2022-11-02T04:22:14.345Z,100173.50
2022-11-02T04:24:37.194Z,100178.78
2022-11-02T04:26:40.783Z,100176.91
2022-11-02T04:28:44.335Z,100183.84
2022-11-02T04:30:48.201Z,100179.44
2022-11-02T04:33:11.101Z,100178.50
2022-11-02T04:35:21.220Z,100171.44
2022-11-02T04:37:38.307Z,100167.84
2022-11-02T04:39:41.817Z,100168.50
2022-11-02T04:41:44.223Z,100173.75
2022-11-02T04:44:07.358Z,100170.00
2022-11-02T04:46:12.053Z,100175.94
2022-11-02T04:48:16.803Z,100163.31
2022-11-02T04:50:20.642Z,100168.94
2022-11-02T04:52:24.685Z,100166.75
2022-11-02T04:54:28.229Z,100161.94
2022-11-02T04:56:36.225Z,100152.69
2022-11-02T04:58:39.779Z,100153.22
2022-11-02T05:00:43.117Z,100151.88
2022-11-02T05:02:48.972Z,100147.88
2022-11-02T05:04:54.578Z,100146.63
2022-11-02T05:07:01.476Z,100145.47
2022-11-02T05:09:06.363Z,100131.97
2022-11-02T05:11:11.301Z,100130.84
2022-11-02T05:13:15.313Z,100125.34
2022-11-02T05:15:19.099Z,100125.22
2022-11-02T05:17:22.472Z,100121.53
2022-11-02T05:19:25.999Z,100123.97
2022-11-02T05:21:31.026Z,100133.25
2022-11-02T05:23:34.830Z,100103.91
2022-11-02T05:25:38.528Z,100120.13
2022-11-02T05:29:46.394Z,100107.97
2022-11-02T05:31:49.823Z,100104.25
2022-11-02T05:33:53.088Z,100101.31
2022-11-02T05:35:58.819Z,100094.13
2022-11-02T05:38:03.962Z,100097.50
2022-11-02T05:40:09.486Z,100080.59
2022-11-02T05:42:13.723Z,100080.50
2022-11-02T05:44:17.424Z,100087.38
2022-11-02T05:46:21.354Z,100081.00
2022-11-02T05:48:25.492Z,100084.38
2022-11-02T05:50:29.402Z,100102.66
2022-11-02T05:52:32.773Z,100121.81
2022-11-02T05:54:37.514Z,100099.72
2022-11-02T05:56:40.773Z,100087.34
2022-11-02T05:58:44.168Z,100072.66
2022-11-02T06:00:47.364Z,100072.44
2022-11-02T06:02:50.868Z,100059.03
2022-11-02T06:04:54.371Z,100050.91
2022-11-02T06:06:58.037Z,100025.13
2022-11-02T06:09:06.706Z,100024.69
2022-11-02T06:11:13.789Z,100006.41
2022-11-02T06:13:17.430Z,100000.38
2022-11-02T06:15:20.649Z,99994.38
2022-11-02T06:17:24.078Z,99976.84
2022-11-02T06:19:27.300Z,99966.16
2022-11-02T06:21:30.601Z,99968.56
2022-11-02T06:23:34.506Z,99954.44
2022-11-02T06:25:37.864Z,99965.63
2022-11-02T06:27:45.903Z,99951.28
2022-11-02T06:29:50.196Z,99947.25
2022-11-02T06:31:54.308Z,99943.44
2022-11-02T06:33:57.705Z,99930.75
2022-11-02T06:36:01.134Z,99903.88
2022-11-02T06:38:04.546Z,99907.84
2022-11-02T06:40:08.701Z,99901.91
2022-11-02T06:42:12.009Z,99882.00
2022-11-02T06:44:16.722Z,99865.44
2022-11-02T06:46:20.106Z,99843.00
2022-11-02T06:48:26.515Z,99843.38
2022-11-02T06:50:31.928Z,99825.13
2022-11-02T06:52:35.323Z,99816.63
2022-11-02T06:54:38.602Z,99812.78
2022-11-02T06:56:41.984Z,99814.25
2022-11-02T06:58:45.373Z,99808.59
2022-11-02T07:00:50.479Z,99796.22
2022-11-02T07:03:01.138Z,99784.56
2022-11-02T07:05:04.826Z,99792.38
2022-11-02T07:07:08.440Z,99787.78
2022-11-02T07:09:12.015Z,99787.66
2022-11-02T07:11:16.408Z,99783.25
2022-11-02T07:13:20.195Z,99787.44
2022-11-02T07:15:25.141Z,99785.50
2022-11-02T07:17:32.282Z,99783.59
2022-11-02T07:19:35.765Z,99768.44
2022-11-02T07:21:41.342Z,99749.78
2022-11-02T07:23:46.959Z,99753.88
2022-11-02T07:25:50.185Z,99750.28
2022-11-02T07:27:53.623Z,99743.06
2022-11-02T07:29:58.322Z,99759.53
2022-11-02T07:32:01.629Z,99750.63
2022-11-02T07:34:06.330Z,99757.97
2022-11-02T07:36:10.209Z,99745.19
2022-11-02T07:38:13.477Z,99750.25
2022-11-02T07:40:16.971Z,99757.00
2022-11-02T07:42:20.430Z,99748.53
2022-11-02T07:44:26.737Z,99732.31
2022-11-02T07:46:29.999Z,99700.28
2022-11-02T07:48:33.303Z,99701.09
2022-11-02T07:50:38.062Z,99695.81
2022-11-02T07:52:48.628Z,99690.78
2022-11-02T07:54:51.980Z,99696.19
2022-11-02T07:56:55.215Z,99708.69
2022-11-02T07:58:58.632Z,99692.81
2022-11-02T08:01:02.878Z,99704.41
2022-11-02T08:03:08.637Z,99675.38
2022-11-02T08:05:12.347Z,99677.31
2022-11-02T08:07:17.191Z,99659.88
2022-11-02T08:09:20.485Z,99645.94
2022-11-02T08:11:23.823Z,99656.63
2022-11-02T08:13:27.186Z,99642.69
2022-11-02T08:15:30.622Z,99627.06
2022-11-02T08:17:34.685Z,99625.25
2022-11-02T08:19:38.752Z,99611.19
2022-11-02T08:21:42.408Z,99575.34
2022-11-02T08:23:47.381Z,99580.16
2022-11-02T08:25:52.508Z,99597.25
2022-11-02T08:27:58.722Z,99575.50
2022-11-02T08:30:02.289Z,99586.19
2022-11-02T08:32:06.161Z,99590.53
2022-11-02T08:34:09.962Z,99571.41
2022-11-02T08:36:13.909Z,99560.25
2022-11-02T08:38:18.736Z,99570.13
2022-11-02T08:40:24.328Z,99542.09
2022-11-02T08:42:28.121Z,99522.75
2022-11-02T08:44:31.755Z,99512.88
2022-11-02T08:46:35.463Z,99508.16
2022-11-02T08:48:39.250Z,99509.59
2022-11-02T08:50:43.103Z,99519.78
2022-11-02T08:52:46.647Z,99483.06
2022-11-02T08:54:50.270Z,99465.00
2022-11-02T08:56:55.526Z,99454.00
2022-11-02T08:58:59.535Z,99454.34
2022-11-02T09:01:03.090Z,99427.34
2022-11-02T09:03:08.898Z,99407.31
2022-11-02T09:05:12.601Z,99396.06
2022-11-02T09:07:16.431Z,99394.56
2022-11-02T09:09:20.649Z,99400.75
2022-11-02T09:11:25.424Z,99391.03
2022-11-02T09:13:31.031Z,99389.38
2022-11-02T09:15:36.515Z,99378.09
2022-11-02T09:17:40.222Z,99369.34
2022-11-02T09:19:49.344Z,99367.66
2022-11-02T09:21:52.958Z,99350.13
2022-11-02T09:23:56.518Z,99359.19
2022-11-02T09:26:00.867Z,99348.16
2022-11-02T09:28:04.749Z,99344.38
2022-11-02T09:30:11.484Z,99334.34
2022-11-02T09:32:15.326Z,99351.09
2022-11-02T09:34:19.274Z,99322.78
2022-11-02T09:36:23.007Z,99303.09
2022-11-02T09:38:27.231Z,99303.09
2022-11-02T09:40:36.704Z,99283.38
2022-11-02T09:42:47.279Z,99277.81
2022-11-02T09:44:55.426Z,99275.84
2022-11-02T09:47:40.411Z,99267.72
2022-11-02T09:49:27.861Z,99251.81
2022-11-02T09:51:37.163Z,99235.91
2022-11-02T09:53:49.879Z,99231.31
2022-11-02T09:55:56.290Z,99233.81
2022-11-02T09:58:05.390Z,99225.41
2022-11-02T10:00:15.693Z,99232.09
2022-11-02T10:02:31.765Z,99206.94
2022-11-02T10:05:04.313Z,99188.78
2022-11-02T10:07:18.272Z,99174.25
2022-11-02T10:09:29.512Z,99177.75
2022-11-02T10:11:46.399Z,99189.03
2022-11-02T10:13:57.102Z,99166.84
2022-11-02T10:16:06.596Z,99146.44
2022-11-02T10:18:19.521Z,99134.16
2022-11-02T10:20:28.078Z,99116.72
2022-11-02T10:22:38.173Z,99119.38
2022-11-02T10:24:44.768Z,99104.28
2022-11-02T10:26:50.702Z,99112.09
2022-11-02T10:29:00.460Z,99107.50
2022-11-02T10:31:04.929Z,99091.78
2022-11-02T10:33:17.212Z,99101.50
2022-11-02T10:35:41.199Z,99081.38
2022-11-02T10:38:08.087Z,99076.25
2022-11-02T10:40:24.324Z,99054.59
2022-11-02T10:42:54.234Z,99043.66
2022-11-02T10:45:19.946Z,99040.00
2022-11-02T10:47:25.956Z,99036.50
2022-11-02T10:50:08.096Z,99035.16
2022-11-02T10:52:17.918Z,99047.91
2022-11-02T10:54:25.360Z,99039.56
2022-11-02T10:56:37.231Z,99016.41
2022-11-02T10:58:46.340Z,99029.59
2022-11-02T11:00:52.378Z,99007.63
2022-11-02T11:03:11.163Z,99019.44
2022-11-02T11:05:20.505Z,99016.16
2022-11-02T11:07:28.727Z,99016.22
2022-11-02T11:09:42.858Z,99013.19
2022-11-02T11:11:59.940Z,99015.44
2022-11-02T11:16:41.354Z,99021.19
2022-11-02T11:21:10.824Z,98973.94
2022-11-02T11:23:21.737Z,98943.63
2022-11-02T11:25:28.377Z,98927.56
2022-11-02T11:27:32.284Z,98934.41
2022-11-02T11:29:39.252Z,98901.97
2022-11-02T11:31:42.861Z,98915.63
2022-11-02T11:33:50.687Z,98869.91
2022-11-02T11:35:55.067Z,98868.41
2022-11-02T11:38:04.969Z,98871.78
2022-11-02T11:40:20.935Z,98862.91
2022-11-02T11:42:28.015Z,98866.75
2022-11-02T11:44:32.473Z,98853.22
2022-11-02T11:46:44.207Z,98845.28
2022-11-02T11:48:51.460Z,98916.03
2022-11-02T11:50:55.136Z,98922.72
2022-11-02T11:53:19.574Z,98919.84
2022-11-02T11:55:26.268Z,98890.09
2022-11-02T11:57:32.516Z,98871.22
2022-11-02T11:59:48.234Z,98883.09
2022-11-02T12:01:56.498Z,98909.84
2022-11-02T12:04:02.521Z,98886.03
2022-11-02T12:06:18.102Z,98838.41
2022-11-02T12:08:48.211Z,98867.81
2022-11-02T12:11:06.531Z,98854.31
2022-11-02T12:13:21.937Z,98872.63
2022-11-02T12:15:40.953Z,98810.63
2022-11-02T12:18:00.947Z,98830.47
2022-11-02T12:20:47.333Z,98849.84
2022-11-02T12:23:00.099Z,98809.91
2022-11-02T12:25:32.981Z,98804.03
2022-11-02T12:27:47.825Z,98805.06
2022-11-02T12:30:12.561Z,98816.13
2022-11-02T12:32:29.933Z,98805.81
2022-11-02T12:35:02.864Z,98814.72
2022-11-02T12:37:39.195Z,98834.91
2022-11-02T12:39:58.536Z,98833.19
2022-11-02T12:42:20.250Z,98847.72
2022-11-02T12:44:42.622Z,98841.50
2022-11-02T12:46:57.622Z,98825.72
2022-11-02T12:49:26.954Z,98825.91
2022-11-02T12:51:35.583Z,98824.44
2022-11-02T12:53:48.051Z,98837.25
2022-11-02T12:55:55.340Z,98829.81
2022-11-02T12:58:06.883Z,98831.97
2022-11-02T13:00:19.978Z,98835.16
2022-11-02T13:02:30.810Z,98832.19
2022-11-02T13:04:43.316Z,98823.88
2022-11-02T13:06:50.024Z,98820.06
2022-11-02T13:08:58.579Z,98817.25
2022-11-02T13:11:08.095Z,98820.59
2022-11-02T13:13:18.256Z,98798.13
2022-11-02T13:15:25.217Z,98816.59
2022-11-02T13:17:37.132Z,98794.31
2022-11-02T13:19:43.661Z,98790.69
2022-11-02T13:21:55.565Z,98796.00
2022-11-02T13:24:01.742Z,98782.53
2022-11-02T13:26:09.506Z,98779.06
2022-11-02T13:28:19.833Z,98763.13
2022-11-02T13:30:23.842Z,98772.06
2022-11-02T13:32:38.203Z,98769.59
2022-11-02T13:34:45.120Z,98760.78
2022-11-02T13:36:48.792Z,98764.44
2022-11-02T13:39:00.688Z,98755.63
2022-11-02T13:41:21.514Z,98755.78
2022-11-02T13:43:53.293Z,98784.38
2022-11-02T13:46:11.081Z,98772.88
2022-11-02T13:48:41.780Z,98738.50
2022-11-02T13:50:51.935Z,98755.78
2022-11-02T13:53:00.816Z,98762.09
2022-11-02T13:55:06.816Z,98748.81
2022-11-02T13:57:33.580Z,98721.56
2022-11-02T13:59:43.183Z,98752.13
2022-11-02T14:01:48.265Z,98745.13
2022-11-02T14:04:01.383Z,98750.59
2022-11-02T14:06:13.483Z,98756.91
2022-11-02T14:08:27.268Z,98750.78
2022-11-02T14:10:35.484Z,98750.78
2022-11-02T14:12:44.931Z,98749.09
2022-11-02T14:15:28.236Z,98758.09
2022-11-02T14:17:51.965Z,98770.69
2022-11-02T14:19:56.545Z,98746.94
2022-11-02T14:22:14.272Z,98726.84
2022-11-02T14:25:06.997Z,98761.88
2022-11-02T14:27:31.777Z,98746.25
2022-11-02T14:29:49.731Z,98745.59
2022-11-02T14:32:03.586Z,98759.03
2022-11-02T14:34:31.242Z,98757.53
2022-11-02T14:36:51.908Z,98743.56
2022-11-02T14:39:11.602Z,98764.31
2022-11-02T14:41:33.100Z,98742.38
2022-11-02T14:43:58.089Z,98740.34
2022-11-02T14:46:14.075Z,98749.63
2022-11-02T14:48:19.281Z,98749.09
2022-11-02T14:50:23.421Z,98759.88
2022-11-02T14:52:30.050Z,98758.38
2022-11-02T14:54:39.075Z,98752.25
2022-11-02T14:56:51.889Z,98755.88
2022-11-02T14:58:59.272Z,98751.56
2022-11-02T15:01:06.069Z,98752.72
2022-11-02T15:03:33.780Z,98752.88
2022-11-02T15:05:39.913Z,98738.94
2022-11-02T15:07:52.152Z,98751.53
2022-11-02T15:09:59.109Z,98741.25
2022-11-02T15:12:21.941Z,98739.41
2022-11-02T15:14:55.367Z,98747.53
2022-11-02T15:16:59.858Z,98745.19
2022-11-02T15:19:44.132Z,98730.44
2022-11-02T15:21:47.949Z,98735.22
2022-11-02T15:23:57.532Z,98743.50
2022-11-02T15:26:06.650Z,98741.81
2022-11-02T15:28:16.660Z,98751.78
2022-11-02T15:30:26.951Z,98735.00
2022-11-02T15:32:39.769Z,98744.63
2022-11-02T15:34:49.577Z,98748.28
2022-11-02T15:36:53.196Z,98751.78
2022-11-02T15:38:58.029Z,98750.09
2022-11-02T15:41:13.811Z,98737.97
2022-11-02T15:43:49.741Z,98738.97
2022-11-02T15:46:08.319Z,98740.09
2022-11-02T15:48:28.005Z,98748.38
2022-11-02T15:50:47.602Z,98767.28
2022-11-02T15:55:37.996Z,98753.97
2022-11-02T15:57:48.785Z,98748.28
2022-11-02T16:00:08.251Z,98766.03
2022-11-02T16:02:24.135Z,98761.16
2022-11-02T16:04:27.934Z,98763.16
2022-11-02T16:06:36.965Z,98770.41
2022-11-02T16:08:40.847Z,98745.75
2022-11-02T16:10:45.333Z,98765.13
2022-11-02T16:12:48.938Z,98744.91
2022-11-02T16:14:59.150Z,98755.53
2022-11-02T16:17:02.863Z,98729.28
2022-11-02T16:19:06.497Z,98762.13
2022-11-02T16:21:14.746Z,98751.97
2022-11-02T16:23:24.483Z,98754.09
2022-11-02T16:25:38.639Z,98743.78
2022-11-02T16:27:44.710Z,98767.00
2022-11-02T16:29:49.994Z,98759.19
2022-11-02T16:31:53.862Z,98748.59
2022-11-02T16:33:59.358Z,98755.69
2022-11-02T16:36:03.492Z,98749.72
2022-11-02T16:38:07.741Z,98734.09
2022-11-02T16:40:19.928Z,98745.88
2022-11-02T16:42:25.253Z,98752.31
2022-11-02T16:44:31.370Z,98742.69
2022-11-02T16:46:50.895Z,98737.69
2022-11-02T16:49:14.179Z,98747.44
2022-11-02T16:51:20.469Z,98765.34
2022-11-02T16:53:30.442Z,98751.38
2022-11-02T16:55:41.833Z,98764.78
2022-11-02T16:57:47.347Z,98768.41
2022-11-02T16:59:55.089Z,98770.94
2022-11-02T17:02:03.229Z,98768.28
2022-11-02T17:04:22.802Z,98764.78
2022-11-02T17:06:26.506Z,98772.09
2022-11-02T17:08:33.388Z,98795.22
2022-11-02T17:10:40.635Z,98770.72
2022-11-02T17:12:45.869Z,98769.34
2022-11-02T17:14:51.637Z,98764.34
2022-11-02T17:17:05.128Z,98777.91
2022-11-02T17:19:46.957Z,98783.34
2022-11-02T17:22:06.854Z,98788.81
2022-11-02T17:24:32.540Z,98795.06
2022-11-02T17:26:39.472Z,98786.47
2022-11-02T17:28:45.570Z,98779.50
2022-11-02T17:30:49.636Z,98782.28
2022-11-02T17:32:53.445Z,98791.38
2022-11-02T17:34:59.268Z,98792.34
2022-11-02T17:37:03.058Z,98788.03
2022-11-02T17:39:06.859Z,98804.06
2022-11-02T17:41:34.319Z,98788.31
2022-11-02T17:43:39.428Z,98795.44
2022-11-02T17:45:42.873Z,98806.19
2022-11-02T17:47:46.894Z,98792.97
2022-11-02T17:49:50.633Z,98808.13
2022-11-02T17:51:54.405Z,98797.69
2022-11-02T17:53:58.307Z,98792.53
2022-11-02T17:56:02.033Z,98819.16
2022-11-02T17:58:08.133Z,98799.94
2022-11-02T18:00:15.250Z,98815.16
2022-11-02T18:02:18.848Z,98810.81
2022-11-02T18:04:22.738Z,98818.78
2022-11-02T18:06:26.501Z,98799.41
2022-11-02T18:08:30.911Z,98843.72
2022-11-02T18:10:38.253Z,98850.97
2022-11-02T18:12:41.980Z,98826.47
2022-11-02T18:14:46.118Z,98840.69
2022-11-02T18:16:53.022Z,98840.53
2022-11-02T18:18:56.755Z,98859.06
2022-11-02T18:21:00.288Z,98855.59
2022-11-02T18:23:04.664Z,98874.94
2022-11-02T18:25:11.782Z,98861.56
2022-11-02T18:27:15.583Z,98870.50
2022-11-02T18:29:19.308Z,98881.94
2022-11-02T18:31:24.947Z,98870.50
2022-11-02T18:33:30.149Z,98893.34
2022-11-02T18:35:33.730Z,98884.72
2022-11-02T18:37:37.971Z,98894.50
2022-11-02T18:39:41.928Z,98909.53
2022-11-02T18:41:45.798Z,98907.59
2022-11-02T18:43:50.028Z,98901.28
2022-11-02T18:46:21.057Z,98914.53
2022-11-02T18:48:39.506Z,98916.19
2022-11-02T18:50:44.141Z,98936.56
2022-11-02T18:52:49.960Z,98930.41
2022-11-02T18:54:53.864Z,98934.06
2022-11-02T18:56:58.059Z,98925.41
2022-11-02T18:59:02.268Z,98934.31
2022-11-02T19:01:10.778Z,98940.22
2022-11-02T19:03:17.638Z,98942.31
2022-11-02T19:05:40.496Z,98933.97
2022-11-02T19:08:01.910Z,98946.94
2022-11-02T19:10:07.349Z,98950.84
2022-11-02T19:12:18.476Z,98957.13
2022-11-02T19:14:23.996Z,98973.28
2022-11-02T19:16:28.152Z,99000.59
2022-11-02T19:18:32.031Z,98980.38
2022-11-02T19:20:37.205Z,98970.91
2022-11-02T19:22:41.957Z,98977.19
2022-11-02T19:24:46.790Z,98979.13
2022-11-02T19:26:52.070Z,98984.00
2022-11-02T19:29:01.391Z,98989.88
2022-11-02T19:31:09.720Z,98999.75
2022-11-02T19:33:13.864Z,99003.50
2022-11-02T19:35:18.372Z,98985.13
2022-11-02T19:37:24.020Z,98998.22
2022-11-02T19:39:31.872Z,99012.69
2022-11-02T19:41:40.064Z,99012.69
2022-11-02T19:43:49.421Z,99010.19
2022-11-02T19:46:02.622Z,99006.16
2022-11-02T19:48:07.383Z,99010.06
2022-11-02T19:50:11.431Z,99019.22
2022-11-02T19:52:15.607Z,99024.09
2022-11-02T19:54:31.942Z,99029.66
2022-11-02T19:56:41.016Z,99028.13
2022-11-02T19:58:54.530Z,99028.56
2022-11-02T20:01:10.066Z,99045.53
2022-11-02T20:03:18.948Z,99046.63
2022-11-02T20:05:24.269Z,99053.97
2022-11-02T20:07:28.957Z,99049.69
2022-11-02T20:09:34.720Z,99063.16
2022-11-02T20:11:42.527Z,99072.09
2022-11-02T20:13:47.861Z,99074.97
2022-11-02T20:15:52.227Z,99086.69
2022-11-02T20:18:17.764Z,99094.03
2022-11-02T20:20:21.531Z,99092.47
2022-11-02T20:22:25.881Z,99091.78
2022-11-02T20:24:29.657Z,99088.44
2022-11-02T20:26:36.983Z,99094.97
2022-11-02T20:28:44.909Z,99104.94
2022-11-02T20:30:48.880Z,99110.63
2022-11-02T20:32:53.157Z,99130.22
2022-11-02T20:34:58.123Z,99133.00
2022-11-02T20:37:03.117Z,99154.41
2022-11-02T20:39:07.933Z,99171.38
2022-11-02T20:41:15.355Z,99163.13
2022-11-02T20:43:21.133Z,99162.66
2022-11-02T20:45:29.069Z,99152.16
2022-11-02T20:47:35.121Z,99153.44
2022-11-02T20:49:54.939Z,99185.13
2022-11-02T20:51:59.781Z,99182.56
2022-11-02T20:54:04.919Z,99190.13
2022-11-02T20:56:12.095Z,99187.16
2022-11-02T20:58:18.085Z,99192.69
2022-11-02T21:00:26.158Z,99195.81
2022-11-02T21:02:31.316Z,99205.66
2022-11-02T21:04:35.710Z,99202.28
2022-11-02T21:06:40.480Z,99199.22
2022-11-02T21:08:45.652Z,99220.31
2022-11-02T21:10:58.005Z,99207.22
2022-11-02T21:13:20.077Z,99214.31
2022-11-02T21:15:26.395Z,99217.06
2022-11-02T21:17:30.962Z,99220.78
2022-11-02T21:19:36.041Z,99216.47
2022-11-02T21:21:40.805Z,99214.06
2022-11-02T21:23:45.252Z,99215.16
2022-11-02T21:25:50.228Z,99223.44
2022-11-02T21:27:56.538Z,99212.16
2022-11-02T21:30:00.956Z,99214.34
2022-11-02T21:32:08.807Z,99216.25
2022-11-02T21:34:13.625Z,99234.97
2022-11-02T21:36:20.767Z,99243.81
2022-11-02T21:38:27.938Z,99236.88
2022-11-02T21:40:33.736Z,99247.28
2022-11-02T21:42:38.952Z,99249.09
2022-11-02T21:44:44.711Z,99243.69
2022-11-02T21:46:49.435Z,99258.69
2022-11-02T21:48:57.440Z,99254.38
2022-11-02T21:51:04.179Z,99263.34
2022-11-02T21:53:09.009Z,99262.53
2022-11-02T21:55:13.656Z,99266.25
2022-11-02T21:57:17.935Z,99261.78
2022-11-02T21:59:22.154Z,99257.47
2022-11-02T22:01:45.850Z,99266.13
2022-11-02T22:03:50.628Z,99275.72
2022-11-02T22:05:56.601Z,99271.16
2022-11-02T22:08:18.187Z,99286.00
2022-11-02T22:10:23.136Z,99276.28
2022-11-02T22:12:44.655Z,99278.81
2022-11-02T22:14:48.366Z,99285.78
2022-11-02T22:16:52.510Z,99286.63
2022-11-02T22:18:58.824Z,99303.28
2022-11-02T22:21:04.955Z,99280.28
2022-11-02T22:23:09.102Z,99296.81
2022-11-02T22:25:13.301Z,99314.31
2022-11-02T22:27:17.482Z,99312.50
2022-11-02T22:29:22.489Z,99295.84
2022-11-02T22:31:28.597Z,99301.13
2022-11-02T22:33:32.451Z,99316.09
2022-11-02T22:35:38.065Z,99314.56
2022-11-02T22:38:01.095Z,99326.06
2022-11-02T22:40:05.615Z,99324.38
2022-11-02T22:42:09.303Z,99321.00
2022-11-02T22:44:14.677Z,99319.34
2022-11-02T22:46:18.416Z,99332.53
2022-11-02T22:48:22.321Z,99331.78
2022-11-02T22:50:27.882Z,99333.72
2022-11-02T22:52:31.930Z,99325.81
2022-11-02T22:54:37.168Z,99333.00
2022-11-02T22:56:41.199Z,99347.13
2022-11-02T22:58:46.066Z,99340.91
2022-11-02T23:00:49.659Z,99348.94
2022-11-02T23:02:53.619Z,99351.44
2022-11-02T23:04:57.308Z,99347.88
2022-11-02T23:07:01.227Z,99360.94
2022-11-02T23:09:05.514Z,99360.81
2022-11-02T23:11:23.140Z,99361.66
2022-11-02T23:13:27.404Z,99369.66
2022-11-02T23:15:31.644Z,99376.63
2022-11-02T23:17:35.448Z,99384.53
2022-11-02T23:19:38.516Z,99385.41
2022-11-02T23:21:44.538Z,99389.81
2022-11-02T23:24:05.898Z,99395.09
2022-11-02T23:26:11.064Z,99400.34
2022-11-02T23:28:32.423Z,99425.91
2022-11-02T23:30:55.276Z,99415.34
2022-11-02T23:33:02.702Z,99422.41
2022-11-02T23:35:25.238Z,99425.03
2022-11-02T23:37:29.639Z,99415.34
2022-11-02T23:39:51.785Z,99403.94
2022-11-02T23:41:57.143Z,99410.19
2022-11-02T23:44:14.188Z,99411.16
2022-11-02T23:46:18.173Z,99416.53
2022-11-02T23:48:22.014Z,99418.22
2022-11-02T23:50:44.217Z,99415.69
2022-11-02T23:53:07.425Z,99415.69
2022-11-02T23:55:31.953Z,99419.28
2022-11-02T23:57:36.967Z,99427.22
2022-11-02T23:59:41.131Z,99431.63
